createdAt,value
2022-12-22T00:00:00.447Z,6.60
2022-12-22T00:05:20.927Z,6.07
2022-12-22T00:10:41.220Z,6.53
2022-12-22T00:16:02.002Z,4.47
2022-12-22T00:21:22.454Z,6.03
2022-12-22T00:26:42.951Z,6.10
2022-12-22T00:32:04.124Z,4.77
2022-12-22T00:37:24.919Z,5.03
2022-12-22T00:42:45.203Z,4.83
2022-12-22T00:48:05.656Z,5.83
2022-12-22T00:53:28.281Z,4.97
2022-12-22T00:58:48.917Z,4.83
2022-12-22T01:04:09.540Z,5.53
2022-12-22T01:09:30.832Z,5.67
2022-12-22T01:14:51.502Z,4.87
2022-12-22T01:20:11.809Z,5.93
2022-12-22T01:25:37.580Z,4.77
2022-12-22T01:30:57.987Z,5.27
2022-12-22T01:36:18.335Z,6.43
2022-12-22T01:41:39.145Z,6.03
2022-12-22T01:47:02.546Z,6.67
2022-12-22T01:52:23.689Z,5.33
2022-12-22T01:57:43.917Z,5.90
2022-12-22T02:03:03.999Z,5.20
2022-12-22T02:08:42.249Z,6.23
2022-12-22T02:14:13.794Z,6.70
2022-12-22T02:19:42.981Z,6.73
2022-12-22T02:25:11.356Z,6.67
2022-12-22T02:30:32.179Z,6.80
2022-12-22T02:35:59.465Z,7.40
2022-12-22T02:41:26.224Z,5.90
2022-12-22T02:47:04.551Z,10.57
2022-12-22T02:52:36.052Z,8.97
2022-12-22T02:57:56.494Z,5.90
2022-12-22T03:03:17.108Z,6.93
2022-12-22T03:08:37.721Z,6.53
2022-12-22T03:13:57.889Z,7.57
2022-12-22T03:19:18.224Z,7.07
2022-12-22T03:24:38.379Z,8.13
2022-12-22T03:29:40.048Z,7.40
2022-12-22T03:34:41.695Z,7.27
2022-12-22T03:39:43.338Z,7.00
2022-12-22T03:45:03.872Z,7.80
2022-12-22T03:50:06.044Z,6.40
2022-12-22T03:55:08.210Z,7.00
2022-12-22T04:00:13.577Z,10.73
2022-12-22T04:05:15.561Z,12.07
2022-12-22T04:10:35.864Z,7.63
2022-12-22T04:15:37.789Z,9.03
2022-12-22T04:20:39.521Z,10.43
2022-12-22T04:25:41.249Z,15.37
2022-12-22T04:30:42.901Z,70.33
2022-12-22T04:35:44.781Z,13.77
2022-12-22T04:40:46.525Z,18.63
2022-12-22T04:45:52.989Z,15.97
2022-12-22T04:50:56.468Z,20.37
2022-12-22T04:56:03.533Z,15.73
2022-12-22T05:01:11.332Z,15.60
2022-12-22T05:06:13.191Z,20.33
2022-12-22T05:11:14.894Z,19.13
2022-12-22T05:16:17.592Z,20.53
2022-12-22T05:21:21.445Z,20.80
2022-12-22T05:26:23.129Z,23.27
2022-12-22T05:31:25.485Z,21.60
2022-12-22T05:36:27.238Z,19.80
2022-12-22T05:41:28.932Z,27.97
2022-12-22T05:46:30.631Z,21.77
2022-12-22T05:51:32.714Z,28.97
2022-12-22T05:56:34.435Z,26.77
2022-12-22T06:01:36.199Z,22.17
2022-12-22T06:06:38.173Z,24.30
2022-12-22T06:11:39.938Z,22.03
2022-12-22T06:16:41.627Z,18.57
2022-12-22T06:21:43.368Z,15.70
2022-12-22T06:26:45.093Z,35.07
2022-12-22T06:31:46.864Z,16.07
2022-12-22T06:36:48.852Z,18.90
2022-12-22T06:42:09.123Z,19.80
2022-12-22T06:47:11.023Z,22.30
2022-12-22T06:52:12.668Z,17.87
2022-12-22T06:57:14.368Z,38.97
2022-12-22T07:02:16.568Z,46.87
2022-12-22T07:07:47.570Z,45.87
2022-12-22T07:12:49.492Z,65.03
2022-12-22T07:17:53.866Z,36.20
2022-12-22T07:22:55.588Z,38.00
2022-12-22T07:27:57.332Z,44.80
2022-12-22T07:32:59.162Z,33.33
2022-12-22T07:38:01.214Z,31.93
2022-12-22T07:43:03.285Z,24.17
2022-12-22T07:48:28.109Z,58.30
2022-12-22T07:53:30.032Z,26.23
2022-12-22T07:58:31.818Z,26.73
2022-12-22T08:03:33.534Z,21.17
2022-12-22T08:08:35.616Z,31.13
2022-12-22T08:13:37.487Z,35.37
2022-12-22T08:18:39.770Z,26.87
2022-12-22T08:23:41.571Z,25.60
2022-12-22T08:29:05.392Z,39.90
2022-12-22T08:34:09.642Z,30.23
2022-12-22T08:39:11.559Z,32.00
2022-12-22T08:44:13.330Z,34.90
2022-12-22T08:49:17.614Z,38.53
2022-12-22T08:54:20.012Z,42.50
2022-12-22T08:59:21.821Z,36.97
2022-12-22T09:04:25.474Z,45.00
2022-12-22T09:09:27.272Z,43.37
2022-12-22T09:14:30.592Z,54.33
2022-12-22T09:19:32.749Z,62.13
2022-12-22T09:24:34.615Z,60.47
2022-12-22T09:29:37.312Z,77.93
2022-12-22T09:34:39.944Z,82.13
2022-12-22T09:39:41.707Z,71.07
2022-12-22T09:44:47.912Z,62.77
2022-12-22T09:49:49.927Z,59.53
2022-12-22T09:54:51.712Z,59.83
2022-12-22T09:59:53.873Z,66.90
2022-12-22T10:05:11.203Z,72.30
2022-12-22T10:10:28.192Z,65.53
2022-12-22T10:15:43.550Z,58.47
2022-12-22T10:21:06.256Z,52.03
2022-12-22T10:26:31.119Z,48.43
2022-12-22T10:31:35.286Z,61.43
2022-12-22T10:36:37.733Z,60.97
2022-12-22T10:41:45.943Z,51.43
2022-12-22T10:46:52.131Z,56.83
2022-12-22T10:52:10.614Z,39.50
2022-12-22T10:57:15.597Z,43.80
2022-12-22T11:02:54.170Z,44.20
2022-12-22T11:07:56.455Z,44.80
2022-12-22T11:12:59.360Z,44.40
2022-12-22T11:18:12.241Z,42.87
2022-12-22T11:23:35.382Z,40.43
2022-12-22T11:28:57.665Z,38.30
2022-12-22T11:34:02.637Z,38.43
2022-12-22T11:39:48.161Z,39.63
2022-12-22T11:45:26.858Z,39.97
2022-12-22T11:51:01.207Z,33.23
2022-12-22T11:56:19.105Z,28.17
2022-12-22T12:01:46.228Z,26.57
2022-12-22T12:07:39.181Z,23.80
2022-12-22T12:13:26.456Z,24.13
2022-12-22T12:18:42.316Z,20.43
2022-12-22T12:23:56.692Z,17.53
2022-12-22T12:29:19.068Z,19.97
2022-12-22T12:34:22.051Z,15.67
2022-12-22T12:39:30.236Z,13.67
2022-12-22T12:44:36.523Z,14.50
2022-12-22T12:49:38.178Z,14.07
2022-12-22T12:54:44.555Z,13.73
2022-12-22T12:59:46.876Z,14.23
2022-12-22T13:05:13.175Z,11.40
2022-12-22T13:10:25.073Z,15.27
2022-12-22T13:15:42.327Z,14.80
2022-12-22T13:20:45.153Z,13.23
2022-12-22T13:26:13.503Z,16.07
2022-12-22T13:31:23.281Z,14.77
2022-12-22T13:36:27.289Z,16.17
2022-12-22T13:41:29.405Z,14.00
2022-12-22T13:46:34.684Z,18.67
2022-12-22T13:51:37.951Z,14.93
2022-12-22T13:56:48.191Z,16.83
2022-12-22T14:01:51.324Z,19.60
2022-12-22T14:06:54.985Z,15.23
2022-12-22T14:12:11.844Z,15.73
2022-12-22T14:17:33.829Z,13.83
2022-12-22T14:22:38.890Z,12.83
2022-12-22T14:27:54.250Z,13.80
2022-12-22T14:32:56.800Z,21.00
2022-12-22T14:38:10.266Z,16.57
2022-12-22T14:43:17.906Z,19.33
2022-12-22T14:48:30.469Z,16.60
2022-12-22T14:53:44.904Z,17.97
2022-12-22T14:58:47.977Z,15.50
2022-12-22T15:04:05.024Z,17.57
2022-12-22T15:09:07.125Z,16.30
2022-12-22T15:14:13.484Z,15.03
2022-12-22T15:19:20.727Z,16.10
2022-12-22T15:24:22.698Z,12.57
2022-12-22T15:29:27.347Z,15.37
2022-12-22T15:34:32.006Z,13.33
2022-12-22T15:39:41.049Z,16.30
2022-12-22T15:44:42.877Z,14.53
2022-12-22T15:55:51.672Z,16.00
2022-12-22T16:01:01.487Z,20.10
2022-12-22T16:17:44.851Z,18.47
2022-12-22T16:22:53.788Z,19.37
2022-12-22T16:27:56.038Z,15.97
2022-12-22T16:32:58.231Z,17.33
2022-12-22T16:38:00.408Z,19.77
2022-12-22T16:48:39.832Z,21.53
2022-12-22T16:53:41.468Z,22.30
2022-12-22T16:58:43.192Z,24.83
2022-12-22T17:03:44.849Z,22.43
2022-12-22T17:08:46.736Z,24.63
2022-12-22T17:14:01.762Z,27.33
2022-12-22T17:19:12.412Z,22.97
2022-12-22T17:24:15.699Z,25.83
2022-12-22T17:29:20.901Z,30.37
2022-12-22T17:34:26.463Z,20.97
2022-12-22T17:39:28.560Z,43.43
2022-12-22T17:44:30.440Z,25.37
2022-12-22T17:51:49.303Z,27.27
2022-12-22T17:56:25.175Z,29.83
2022-12-22T18:02:24.959Z,23.70
2022-12-22T18:07:43.596Z,24.27
2022-12-22T18:12:52.566Z,26.27
2022-12-22T18:17:57.304Z,21.60
2022-12-22T18:23:02.284Z,27.67
2022-12-22T18:34:11.821Z,23.73
2022-12-22T18:44:41.294Z,22.57
2022-12-22T18:49:49.151Z,22.37
2022-12-22T18:54:51.067Z,21.83
2022-12-22T18:59:52.816Z,29.80
2022-12-22T19:04:55.185Z,29.00
2022-12-22T19:09:59.459Z,27.77
2022-12-22T19:15:07.348Z,29.53
2022-12-22T19:20:22.443Z,32.93
2022-12-22T19:25:29.462Z,26.37
2022-12-22T19:30:33.876Z,37.87
2022-12-22T19:35:43.254Z,31.00
2022-12-22T19:41:11.755Z,30.53
2022-12-22T19:46:20.159Z,46.80
2022-12-22T19:51:22.161Z,32.73
2022-12-22T19:56:53.865Z,40.87
2022-12-22T20:02:01.679Z,33.17
2022-12-22T20:07:03.680Z,28.13
2022-12-22T20:12:05.581Z,27.33
2022-12-22T20:17:09.534Z,28.17
2022-12-22T20:22:18.230Z,26.03
2022-12-22T20:27:34.772Z,27.87
2022-12-22T20:32:36.773Z,30.37
2022-12-22T20:37:38.736Z,29.50
2022-12-22T20:42:40.379Z,28.70
2022-12-22T20:47:42.096Z,22.07
2022-12-22T20:52:43.895Z,26.30
2022-12-22T20:57:46.592Z,25.90
2022-12-22T21:02:48.689Z,23.60
2022-12-22T21:07:50.668Z,21.57
2022-12-22T21:13:13.627Z,18.00
2022-12-22T21:18:21.277Z,22.80
2022-12-22T21:23:30.694Z,14.93
2022-12-22T21:28:37.167Z,15.17
2022-12-22T21:33:43.241Z,15.93
2022-12-22T21:38:45.338Z,12.33
2022-12-22T21:43:47.528Z,15.70
2022-12-22T21:48:51.944Z,16.33
2022-12-22T21:53:53.739Z,11.57
2022-12-22T21:59:01.889Z,12.67
2022-12-22T22:04:14.963Z,15.43
2022-12-22T22:09:22.479Z,10.27
2022-12-22T22:14:24.933Z,13.13
2022-12-22T22:19:29.066Z,17.23
2022-12-22T22:24:33.647Z,14.03
2022-12-22T22:29:52.670Z,15.83
2022-12-22T22:35:18.097Z,9.87
2022-12-22T22:40:23.083Z,10.20
2022-12-22T22:45:24.871Z,10.83
2022-12-22T22:50:26.654Z,9.63
2022-12-22T22:55:36.027Z,9.10
2022-12-22T23:00:38.350Z,10.17
2022-12-22T23:05:40.043Z,7.53
2022-12-22T23:10:48.432Z,9.80
2022-12-22T23:15:58.411Z,13.37
2022-12-22T23:21:01.362Z,16.30
2022-12-22T23:26:03.436Z,12.40
2022-12-22T23:31:05.472Z,16.90
2022-12-22T23:36:07.828Z,21.80
2022-12-22T23:41:13.591Z,25.50
2022-12-22T23:46:17.406Z,29.90
2022-12-22T23:51:19.636Z,27.87
2022-12-22T23:56:21.834Z,29.27
